Aviation Digital Data Service (ADDS)

Output produced by METARs form (1730 UTC 06 March 2015)
found at http://www.aviationweather.gov/adds/metars/
 
KDOV 061658Z AUTO 34007KT 10SM CLR M07/M13 A3057 RMK AO2 SLP356 T10701134 $
TAF KDOV 0616/0722 35009KT 9999 SKC QNH3042INS 
     BECMG 0711/0712 22009KT 9999 FEW060 QNH3024INS TX01/0716Z TNM11/0709Z